createdAt,value
2019-06-07T00:00:50.312Z,16.73
2019-06-07T00:03:31.204Z,15.43
2019-06-07T00:09:14.506Z,17.00
2019-06-07T00:12:21.504Z,16.67
2019-06-07T00:15:20.432Z,16.23
2019-06-07T00:22:11.988Z,16.33
2019-06-07T00:24:14.752Z,17.17
2019-06-07T00:29:56.200Z,17.50
2019-06-07T00:32:38.959Z,17.90
2019-06-07T00:44:40.112Z,18.42
2019-06-07T00:47:13.058Z,18.03
2019-06-07T00:49:58.171Z,17.50
2019-06-07T00:53:26.918Z,18.57
2019-06-07T00:55:48.473Z,17.10
2019-06-07T00:59:09.846Z,17.60
2019-06-07T01:01:41.820Z,17.50
2019-06-07T01:07:34.729Z,18.17
2019-06-07T01:10:52.346Z,16.00
2019-06-07T01:13:26.562Z,17.87
2019-06-07T01:16:16.188Z,17.90
2019-06-07T01:19:00.040Z,16.23
2019-06-07T01:21:39.417Z,16.07
2019-06-07T01:24:30.826Z,15.90
2019-06-07T01:27:04.988Z,15.50
2019-06-07T01:40:44.852Z,14.07
2019-06-07T01:43:31.010Z,14.57
2019-06-07T01:46:20.601Z,13.97
2019-06-07T01:49:22.792Z,13.87
2019-06-07T01:57:50.710Z,13.23
2019-06-07T02:00:39.632Z,13.00
2019-06-07T02:03:37.454Z,13.20
2019-06-07T02:06:21.714Z,13.73
2019-06-07T02:09:13.563Z,12.60
2019-06-07T02:12:24.730Z,13.70
2019-06-07T02:14:55.971Z,13.63
2019-06-07T02:17:47.302Z,14.13
2019-06-07T02:20:37.921Z,14.20
2019-06-07T02:26:29.973Z,15.57
2019-06-07T02:32:15.084Z,16.63
2019-06-07T02:35:06.447Z,15.93
2019-06-07T02:40:53.888Z,15.87
2019-06-07T02:43:45.177Z,16.07
2019-06-07T02:46:46.584Z,16.77
2019-06-07T02:49:33.447Z,17.17
2019-06-07T02:52:40.447Z,18.03
2019-06-07T02:55:19.094Z,19.07
2019-06-07T02:58:12.021Z,19.57
2019-06-07T03:03:40.214Z,19.57
2019-06-07T03:06:13.525Z,19.53
2019-06-07T03:08:47.181Z,19.03
2019-06-07T03:11:19.156Z,18.90
2019-06-07T03:13:50.593Z,17.93
2019-06-07T03:16:23.622Z,19.45
2019-06-07T03:18:57.578Z,19.10
2019-06-07T03:21:31.320Z,18.73
2019-06-07T03:24:02.773Z,18.80
2019-06-07T03:26:42.249Z,18.60
2019-06-07T03:29:07.527Z,16.77
2019-06-07T03:31:46.416Z,17.67
2019-06-07T03:34:10.946Z,17.53
2019-06-07T03:36:43.449Z,16.70
2019-06-07T03:39:15.437Z,18.23
2019-06-07T03:42:04.813Z,19.27
2019-06-07T03:44:19.801Z,19.17
2019-06-07T03:46:51.210Z,19.33
2019-06-07T03:49:23.845Z,19.80
2019-06-07T03:51:56.428Z,20.43
2019-06-07T03:54:29.509Z,19.50
2019-06-07T03:57:02.376Z,19.90
2019-06-07T03:59:38.660Z,20.73
2019-06-07T04:02:08.133Z,21.27
2019-06-07T04:04:40.876Z,21.47
2019-06-07T04:07:11.947Z,21.90
2019-06-07T04:09:44.324Z,19.40
2019-06-07T04:12:17.235Z,20.60
2019-06-07T04:14:48.455Z,20.53
2019-06-07T04:17:20.973Z,19.30
2019-06-07T04:19:53.619Z,20.00
2019-06-07T04:22:28.831Z,19.63
2019-06-07T04:25:05.135Z,20.67
2019-06-07T04:30:49.596Z,19.03
2019-06-07T04:33:19.968Z,18.98
2019-06-07T04:36:12.278Z,19.27
2019-06-07T04:38:44.185Z,20.40
2019-06-07T04:41:18.189Z,21.60
2019-06-07T04:43:50.619Z,20.20
2019-06-07T04:49:19.136Z,20.67
2019-06-07T04:51:50.831Z,21.60
2019-06-07T04:54:24.303Z,21.20
2019-06-07T04:56:55.765Z,19.90
2019-06-07T05:00:07.873Z,21.57
2019-06-07T05:02:03.797Z,22.60
2019-06-07T05:04:38.955Z,22.43
2019-06-07T05:07:09.112Z,20.43
2019-06-07T05:09:43.250Z,21.67
2019-06-07T05:12:14.763Z,21.53
2019-06-07T05:14:47.203Z,20.37
2019-06-07T05:17:21.438Z,21.47
2019-06-07T05:19:53.995Z,20.27
2019-06-07T05:22:26.621Z,20.67
2019-06-07T05:24:59.906Z,21.10
2019-06-07T05:27:33.875Z,20.97
2019-06-07T05:30:23.735Z,19.23
2019-06-07T05:32:43.743Z,19.70
2019-06-07T05:35:15.580Z,21.05
2019-06-07T05:40:21.432Z,19.77
2019-06-07T05:42:53.011Z,20.03
2019-06-07T05:45:28.306Z,20.13
2019-06-07T05:47:59.651Z,22.20
2019-06-07T05:50:55.840Z,20.70
2019-06-07T05:53:16.541Z,23.37
2019-06-07T05:55:47.675Z,23.67
2019-06-07T05:58:21.794Z,23.40
2019-06-07T06:00:53.568Z,24.50
2019-06-07T06:03:24.910Z,25.97
2019-06-07T06:05:57.885Z,24.80
2019-06-07T06:08:29.558Z,25.20
2019-06-07T06:11:03.210Z,23.87
2019-06-07T06:13:54.715Z,24.47
2019-06-07T06:16:10.157Z,25.53
2019-06-07T06:18:46.842Z,22.93
2019-06-07T06:21:19.919Z,22.73
2019-06-07T06:23:54.545Z,23.77
2019-06-07T06:26:27.454Z,23.90
2019-06-07T06:28:58.877Z,24.20
2019-06-07T06:31:30.184Z,25.63
2019-06-07T06:34:01.739Z,25.23
2019-06-07T06:36:34.634Z,24.80
2019-06-07T06:39:07.708Z,24.40
2019-06-07T06:41:57.124Z,25.47
2019-06-07T06:44:20.198Z,25.90
2019-06-07T06:46:58.277Z,24.47
2019-06-07T06:49:28.577Z,23.80
2019-06-07T06:51:58.838Z,22.07
2019-06-07T06:54:41.025Z,23.53
2019-06-07T06:57:19.003Z,23.67
2019-06-07T06:59:41.259Z,20.33
2019-06-07T07:02:12.430Z,19.63
2019-06-07T07:04:48.730Z,20.63
2019-06-07T07:07:20.119Z,21.30
2019-06-07T07:09:58.160Z,19.30
2019-06-07T07:12:26.405Z,21.00
2019-06-07T07:15:01.174Z,20.77
2019-06-07T07:20:09.964Z,20.37
2019-06-07T07:22:39.979Z,20.00
2019-06-07T07:25:12.662Z,20.33
2019-06-07T07:27:44.630Z,19.13
2019-06-07T07:30:35.973Z,20.63
2019-06-07T07:32:50.700Z,19.83
2019-06-07T07:35:23.383Z,21.03
2019-06-07T07:37:57.041Z,17.97
2019-06-07T07:42:58.932Z,18.87
2019-06-07T07:45:29.484Z,19.43
2019-06-07T07:48:15.588Z,20.27
2019-06-07T07:50:34.897Z,19.33
2019-06-07T07:53:08.654Z,19.37
2019-06-07T07:55:39.776Z,20.80
2019-06-07T07:58:09.921Z,19.40
2019-06-07T08:00:57.516Z,20.07
2019-06-07T08:03:15.890Z,18.77
2019-06-07T08:05:47.606Z,19.60
2019-06-07T08:08:18.695Z,18.63
2019-06-07T08:10:51.898Z,18.83
2019-06-07T08:13:26.378Z,19.37
2019-06-07T08:15:59.650Z,18.80
2019-06-07T08:18:29.091Z,20.37
2019-06-07T08:21:21.605Z,21.90
2019-06-07T08:23:33.077Z,20.57
2019-06-07T08:26:05.745Z,21.60
2019-06-07T08:28:38.146Z,21.90
2019-06-07T08:31:11.296Z,20.27
2019-06-07T08:33:44.128Z,20.27
2019-06-07T08:36:21.892Z,23.37
2019-06-07T08:38:54.192Z,20.60
2019-06-07T08:41:23.463Z,21.30
2019-06-07T08:43:56.825Z,20.53
2019-06-07T08:46:29.227Z,22.93
2019-06-07T08:49:04.776Z,22.97
2019-06-07T08:51:34.744Z,22.80
2019-06-07T08:54:21.808Z,23.40
2019-06-07T08:56:40.056Z,21.37
2019-06-07T08:59:11.854Z,23.37
2019-06-07T09:01:43.471Z,22.73
2019-06-07T09:04:17.608Z,20.90
2019-06-07T09:07:06.684Z,22.97
2019-06-07T09:09:31.818Z,22.53
2019-06-07T09:12:10.791Z,21.80
2019-06-07T09:14:58.945Z,21.00
2019-06-07T09:17:12.600Z,19.87
2019-06-07T09:19:43.050Z,19.13
2019-06-07T09:22:15.675Z,18.00
2019-06-07T09:24:51.342Z,18.57
2019-06-07T09:29:53.658Z,17.43
2019-06-07T09:32:23.802Z,16.70
2019-06-07T09:35:02.483Z,16.53
2019-06-07T09:40:19.613Z,18.03
2019-06-07T09:42:37.056Z,14.50
2019-06-07T09:45:13.847Z,16.27
2019-06-07T09:47:42.244Z,16.47
2019-06-07T09:50:12.719Z,16.07
2019-06-07T09:52:57.902Z,17.97
2019-06-07T09:55:24.230Z,17.57
2019-06-07T09:57:48.624Z,17.00
2019-06-07T10:00:40.073Z,16.87
2019-06-07T10:03:02.269Z,17.17
2019-06-07T10:05:27.834Z,16.77
2019-06-07T10:08:11.073Z,16.97
2019-06-07T10:13:04.177Z,15.90
2019-06-07T10:15:37.015Z,15.57
2019-06-07T10:18:07.154Z,16.30
2019-06-07T10:20:41.033Z,15.13
2019-06-07T10:23:12.163Z,14.10
2019-06-07T10:25:44.585Z,16.03
2019-06-07T10:28:17.474Z,15.73
2019-06-07T10:33:20.934Z,15.77
2019-06-07T10:35:53.125Z,14.43
2019-06-07T10:38:25.787Z,15.03
2019-06-07T10:41:00.793Z,14.10
2019-06-07T10:43:31.847Z,14.97
2019-06-07T10:46:05.567Z,14.57
2019-06-07T10:48:37.085Z,13.90
2019-06-07T10:51:11.450Z,14.53
2019-06-07T10:53:46.455Z,14.17
2019-06-07T10:56:19.350Z,16.07
2019-06-07T10:58:51.169Z,15.97
2019-06-07T11:01:21.335Z,14.67
2019-06-07T11:03:54.720Z,16.50
2019-06-07T11:06:24.877Z,15.33
2019-06-07T11:08:54.995Z,16.90
2019-06-07T11:11:29.843Z,14.77
2019-06-07T11:16:36.752Z,14.07
2019-06-07T11:19:12.589Z,15.17
2019-06-07T11:21:41.911Z,14.30
2019-06-07T11:24:14.437Z,16.40
2019-06-07T11:26:44.893Z,15.93
2019-06-07T11:29:15.179Z,14.73
2019-06-07T11:31:47.409Z,14.77
2019-06-07T11:34:19.809Z,12.10
2019-06-07T11:36:53.127Z,14.10
2019-06-07T11:39:24.018Z,13.10
2019-06-07T11:41:55.364Z,12.10
2019-06-07T11:44:27.804Z,13.07
2019-06-07T11:47:00.753Z,13.20
2019-06-07T11:49:31.915Z,12.33
2019-06-07T11:52:03.040Z,13.30
2019-06-07T11:54:37.661Z,13.07
2019-06-07T11:57:13.210Z,12.70
2019-06-07T11:59:48.318Z,11.12
2019-06-07T12:02:20.144Z,13.83
2019-06-07T12:04:56.568Z,13.78
2019-06-07T12:07:32.908Z,11.33
2019-06-07T12:10:08.539Z,12.73
2019-06-07T12:12:41.666Z,11.45
2019-06-07T12:15:15.006Z,10.17
2019-06-07T12:17:47.614Z,9.45
2019-06-07T12:20:21.039Z,10.10
2019-06-07T12:22:52.792Z,9.73
2019-06-07T12:25:27.057Z,9.38
2019-06-07T12:27:57.752Z,9.03
2019-06-07T12:30:28.426Z,9.35
2019-06-07T12:33:02.675Z,8.73
2019-06-07T12:35:38.113Z,8.83
2019-06-07T12:38:12.197Z,8.30
2019-06-07T12:40:56.854Z,9.00
2019-06-07T12:43:19.011Z,8.73
2019-06-07T12:48:41.703Z,9.80
2019-06-07T12:51:15.072Z,10.30
2019-06-07T12:53:47.549Z,9.50
2019-06-07T12:56:21.859Z,7.95
2019-06-07T12:58:53.468Z,7.83
2019-06-07T13:01:24.878Z,8.10
2019-06-07T13:03:54.976Z,7.63
2019-06-07T13:06:27.982Z,7.93
2019-06-07T13:09:00.966Z,8.20
2019-06-07T13:11:32.120Z,9.97
2019-06-07T13:14:03.493Z,9.67
2019-06-07T13:16:34.747Z,11.27
2019-06-07T13:19:07.759Z,9.80
2019-06-07T13:21:41.419Z,9.93
2019-06-07T13:24:12.505Z,10.67
2019-06-07T13:27:02.951Z,10.17
2019-06-07T13:29:34.601Z,11.20
2019-06-07T13:32:08.444Z,9.70
2019-06-07T13:37:14.376Z,8.57
2019-06-07T13:39:45.587Z,10.13
2019-06-07T13:42:16.754Z,9.30
2019-06-07T13:44:48.821Z,9.80
2019-06-07T13:47:21.364Z,11.50
2019-06-07T13:52:25.338Z,10.53
2019-06-07T13:55:01.201Z,11.13
2019-06-07T13:57:30.956Z,12.53
2019-06-07T14:00:00.209Z,11.03
2019-06-07T14:02:31.384Z,12.47
2019-06-07T14:05:02.519Z,10.40
2019-06-07T14:07:35.538Z,10.67
2019-06-07T14:10:19.402Z,10.67
2019-06-07T14:12:50.251Z,10.33
2019-06-07T14:15:22.339Z,10.10
2019-06-07T14:17:55.040Z,10.40
2019-06-07T14:22:59.044Z,8.67
2019-06-07T14:25:31.433Z,8.07
2019-06-07T14:28:01.597Z,8.07
2019-06-07T14:30:34.598Z,7.40
2019-06-07T14:33:05.994Z,8.53
2019-06-07T14:35:37.235Z,8.17
2019-06-07T14:38:08.741Z,7.43
2019-06-07T14:40:43.601Z,8.27
2019-06-07T14:43:15.067Z,8.33
2019-06-07T14:45:47.608Z,9.20
2019-06-07T14:48:20.134Z,7.40
2019-06-07T14:50:51.579Z,7.60
2019-06-07T14:53:24.507Z,8.43
2019-06-07T14:55:55.905Z,7.73
2019-06-07T14:58:27.094Z,8.10
2019-06-07T15:00:59.322Z,8.03
2019-06-07T15:03:30.524Z,8.13
2019-06-07T15:06:01.750Z,7.37
2019-06-07T15:08:32.910Z,7.97
2019-06-07T15:11:07.295Z,8.67
2019-06-07T15:13:39.874Z,8.20
2019-06-07T15:16:11.372Z,8.10
2019-06-07T15:18:43.506Z,8.10
2019-06-07T15:21:15.777Z,7.57
2019-06-07T15:23:48.422Z,7.13
2019-06-07T15:28:52.280Z,8.53
2019-06-07T15:31:22.355Z,8.47
2019-06-07T15:33:54.883Z,7.77
2019-06-07T15:36:30.451Z,7.63
2019-06-07T15:39:02.332Z,7.67
2019-06-07T15:41:33.080Z,8.10
2019-06-07T15:44:06.908Z,8.43
2019-06-07T15:46:40.098Z,7.20
2019-06-07T15:49:13.364Z,7.87
2019-06-07T15:51:43.255Z,7.77
2019-06-07T15:54:14.541Z,7.73
2019-06-07T15:56:49.319Z,8.13
2019-06-07T15:59:20.541Z,7.62
2019-06-07T16:01:50.535Z,8.70
2019-06-07T16:04:23.131Z,8.27
2019-06-07T16:06:58.062Z,8.47
2019-06-07T16:09:30.424Z,7.87
2019-06-07T16:12:00.500Z,8.37
2019-06-07T16:14:35.026Z,8.20
2019-06-07T16:17:10.136Z,8.13
2019-06-07T16:19:46.237Z,8.23
2019-06-07T16:22:16.771Z,7.37
2019-06-07T16:24:48.371Z,7.50
2019-06-07T16:27:22.755Z,7.20
2019-06-07T16:29:57.389Z,8.43
2019-06-07T16:32:30.610Z,7.43
2019-06-07T16:35:04.829Z,7.50
2019-06-07T16:37:43.015Z,7.93
2019-06-07T16:40:16.781Z,8.13
2019-06-07T16:42:49.124Z,8.17
2019-06-07T16:45:20.800Z,8.17
2019-06-07T16:47:51.504Z,9.27
2019-06-07T16:50:24.288Z,8.37
2019-06-07T16:52:58.083Z,9.03
2019-06-07T16:55:28.381Z,8.63
2019-06-07T16:58:02.511Z,7.83
2019-06-07T17:00:38.654Z,7.67
2019-06-07T17:03:12.296Z,7.77
2019-06-07T17:08:16.040Z,8.17
2019-06-07T17:10:50.881Z,12.40
2019-06-07T17:13:33.450Z,14.45
2019-06-07T17:15:58.326Z,8.97
2019-06-07T17:18:30.759Z,8.97
2019-06-07T17:21:04.047Z,8.20
2019-06-07T17:23:36.649Z,8.63
2019-06-07T17:26:09.391Z,8.33
2019-06-07T17:31:16.638Z,8.37
2019-06-07T17:33:50.057Z,8.17
2019-06-07T17:36:22.547Z,8.47
2019-06-07T17:38:53.580Z,10.77
2019-06-07T17:41:22.930Z,9.68
2019-06-07T17:44:00.025Z,9.30
2019-06-07T17:46:29.936Z,8.30
2019-06-07T17:49:02.249Z,8.67
2019-06-07T17:51:37.082Z,9.63
2019-06-07T17:54:08.470Z,9.80
2019-06-07T17:56:39.684Z,8.97
2019-06-07T18:02:07.096Z,11.80
2019-06-07T18:04:22.251Z,11.55
2019-06-07T18:06:53.629Z,12.13
2019-06-07T18:09:26.822Z,11.43
2019-06-07T18:12:02.442Z,11.50
2019-06-07T18:14:35.888Z,12.37
2019-06-07T18:17:10.213Z,15.07
2019-06-07T18:19:40.329Z,14.27
2019-06-07T18:22:13.210Z,15.83
2019-06-07T18:24:44.495Z,18.07
2019-06-07T18:27:14.551Z,17.30
2019-06-07T18:29:46.479Z,19.57
2019-06-07T18:32:19.025Z,21.60
2019-06-07T18:34:50.823Z,18.90
2019-06-07T18:37:23.235Z,12.60
2019-06-07T18:40:00.261Z,13.93
2019-06-07T18:42:29.994Z,16.23
2019-06-07T18:45:01.736Z,15.03
2019-06-07T18:47:34.307Z,17.93
2019-06-07T18:50:06.801Z,13.67
2019-06-07T18:52:39.383Z,12.50
2019-06-07T18:55:13.154Z,10.53
2019-06-07T18:57:44.202Z,12.57
2019-06-07T19:00:19.323Z,15.03
2019-06-07T19:02:51.948Z,16.00
2019-06-07T19:05:22.277Z,13.00
2019-06-07T19:07:52.853Z,11.80
2019-06-07T19:10:24.251Z,14.10
2019-06-07T19:12:57.402Z,13.57
2019-06-07T19:18:02.652Z,12.93
2019-06-07T19:20:34.242Z,15.77
2019-06-07T19:23:04.982Z,14.37
2019-06-07T19:25:40.014Z,13.40
2019-06-07T19:28:12.507Z,13.23
2019-06-07T19:30:47.083Z,14.50
2019-06-07T19:33:17.966Z,13.13
2019-06-07T19:35:48.900Z,13.93
2019-06-07T19:38:23.641Z,14.63
2019-06-07T19:40:57.987Z,15.37
2019-06-07T19:46:04.174Z,13.63
2019-06-07T19:48:35.499Z,16.00
2019-06-07T19:51:06.406Z,15.07
2019-06-07T19:53:40.428Z,15.03
2019-06-07T19:56:15.490Z,14.60
2019-06-07T19:58:48.130Z,16.20
2019-06-07T20:01:20.231Z,14.67
2019-06-07T20:03:54.152Z,12.57
2019-06-07T20:06:24.158Z,13.45
2019-06-07T20:08:54.551Z,14.23
2019-06-07T20:11:29.371Z,13.40
2019-06-07T20:14:01.186Z,13.43
2019-06-07T20:16:35.085Z,12.93
2019-06-07T20:19:07.043Z,13.80
2019-06-07T20:21:42.375Z,14.70
2019-06-07T20:24:26.796Z,13.62
2019-06-07T20:26:46.789Z,13.60
2019-06-07T20:29:26.004Z,15.47
2019-06-07T20:31:54.377Z,14.73
2019-06-07T20:34:25.472Z,15.43
2019-06-07T20:37:00.221Z,17.20
2019-06-07T20:39:33.147Z,15.00
2019-06-07T20:42:05.812Z,15.07
2019-06-07T20:44:38.413Z,14.63
2019-06-07T20:47:08.445Z,15.13
2019-06-07T20:49:41.012Z,15.87
2019-06-07T20:52:12.073Z,15.43
2019-06-07T20:54:43.115Z,14.80
2019-06-07T20:57:15.548Z,16.47
2019-06-07T20:59:46.759Z,17.30
2019-06-07T21:02:17.899Z,15.37
2019-06-07T21:04:52.487Z,16.20
2019-06-07T21:07:23.360Z,15.67
2019-06-07T21:10:15.188Z,14.93
2019-06-07T21:12:46.640Z,16.00
2019-06-07T21:15:17.051Z,16.62
2019-06-07T21:17:51.583Z,14.97
2019-06-07T21:20:26.145Z,16.67
2019-06-07T21:22:57.280Z,16.27
2019-06-07T21:25:28.851Z,16.37
2019-06-07T21:28:01.553Z,16.00
2019-06-07T21:30:32.472Z,15.63
2019-06-07T21:33:03.659Z,15.83
2019-06-07T21:35:38.205Z,15.37
2019-06-07T21:38:09.982Z,16.60
2019-06-07T21:40:41.011Z,18.17
2019-06-07T21:43:12.908Z,16.97
2019-06-07T21:45:44.210Z,16.50
2019-06-07T21:48:14.575Z,16.40
2019-06-07T21:50:45.753Z,16.37
2019-06-07T21:53:18.975Z,17.10
2019-06-07T21:55:49.055Z,17.07
2019-06-07T21:58:20.186Z,16.43
2019-06-07T22:00:59.076Z,16.27
2019-06-07T22:03:29.063Z,17.10
2019-06-07T22:05:59.062Z,17.03
2019-06-07T22:08:29.072Z,17.33
2019-06-07T22:10:59.108Z,17.30
2019-06-07T22:13:34.592Z,19.77
2019-06-07T22:16:21.580Z,17.77
2019-06-07T22:18:42.131Z,18.87
2019-06-07T22:21:13.317Z,18.00
2019-06-07T22:23:48.333Z,19.17
2019-06-07T22:26:21.563Z,19.10
2019-06-07T22:28:56.769Z,17.50
2019-06-07T22:31:30.988Z,17.77
2019-06-07T22:34:03.641Z,20.40
2019-06-07T22:36:35.038Z,20.73
2019-06-07T22:39:09.641Z,20.10
2019-06-07T22:41:41.238Z,20.60
2019-06-07T22:44:14.934Z,20.13
2019-06-07T22:46:47.541Z,21.30
2019-06-07T22:51:50.116Z,21.10
2019-06-07T22:54:23.609Z,21.43
2019-06-07T22:56:59.126Z,21.80
2019-06-07T22:59:30.369Z,21.87
2019-06-07T23:02:04.726Z,23.63
2019-06-07T23:04:36.400Z,22.27
2019-06-07T23:07:08.708Z,24.73
2019-06-07T23:09:42.935Z,23.10
2019-06-07T23:12:15.301Z,22.87
2019-06-07T23:14:46.354Z,22.17
2019-06-07T23:17:18.251Z,22.22
2019-06-07T23:19:51.050Z,20.23
2019-06-07T23:22:24.429Z,16.43
2019-06-07T23:24:57.082Z,15.73
2019-06-07T23:27:29.882Z,17.27
2019-06-07T23:30:08.136Z,18.53
2019-06-07T23:32:36.263Z,17.77
2019-06-07T23:35:10.735Z,18.90
2019-06-07T23:37:43.207Z,18.37
2019-06-07T23:40:13.257Z,19.13
2019-06-07T23:42:45.763Z,19.97
2019-06-07T23:45:19.524Z,20.48
2019-06-07T23:47:52.246Z,19.70
2019-06-07T23:50:23.858Z,19.90
2019-06-07T23:52:57.084Z,21.17
2019-06-07T23:55:28.322Z,29.17
2019-06-07T23:58:00.680Z,25.83
